sensor_id;sensor_type;location;lat;lon;timestamp;temperature;humidity
24408;DHT22;12542;50.924;4.516;2024-03-08T00:00:08;5.70;99.90
24408;DHT22;12542;50.924;4.516;2024-03-08T00:02:41;5.70;99.90
24408;DHT22;12542;50.924;4.516;2024-03-08T00:05:08;5.90;99.90
24408;DHT22;12542;50.924;4.516;2024-03-08T00:07:38;5.70;99.90
24408;DHT22;12542;50.924;4.516;2024-03-08T00:10:07;5.70;99.90
24408;DHT22;12542;50.924;4.516;2024-03-08T00:12:40;5.60;99.90
24408;DHT22;12542;50.924;4.516;2024-03-08T00:15:14;5.60;99.90
24408;DHT22;12542;50.924;4.516;2024-03-08T00:17:43;5.50;99.90
24408;DHT22;12542;50.924;4.516;2024-03-08T00:20:09;5.60;99.90
24408;DHT22;12542;50.924;4.516;2024-03-08T00:22:39;5.70;99.90
24408;DHT22;12542;50.924;4.516;2024-03-08T00:25:05;5.70;99.90
24408;DHT22;12542;50.924;4.516;2024-03-08T00:27:36;5.50;99.90
24408;DHT22;12542;50.924;4.516;2024-03-08T00:30:03;5.50;99.90
24408;DHT22;12542;50.924;4.516;2024-03-08T00:32:29;5.50;99.90
24408;DHT22;12542;50.924;4.516;2024-03-08T00:34:57;5.60;99.90
24408;DHT22;12542;50.924;4.516;2024-03-08T00:37:23;5.50;99.90
24408;DHT22;12542;50.924;4.516;2024-03-08T00:39:49;5.60;99.90
24408;DHT22;12542;50.924;4.516;2024-03-08T00:42:16;5.60;99.90
24408;DHT22;12542;50.924;4.516;2024-03-08T00:44:42;5.50;99.90
24408;DHT22;12542;50.924;4.516;2024-03-08T00:47:08;5.30;99.90
24408;DHT22;12542;50.924;4.516;2024-03-08T00:49:33;5.40;99.90
24408;DHT22;12542;50.924;4.516;2024-03-08T00:52:02;5.40;99.90
24408;DHT22;12542;50.924;4.516;2024-03-08T00:54:28;5.40;99.90
24408;DHT22;12542;50.924;4.516;2024-03-08T00:56:53;5.30;99.90
24408;DHT22;12542;50.924;4.516;2024-03-08T00:59:19;5.20;99.90
24408;DHT22;12542;50.924;4.516;2024-03-08T01:01:47;5.00;99.90
24408;DHT22;12542;50.924;4.516;2024-03-08T01:04:13;5.10;99.90
24408;DHT22;12542;50.924;4.516;2024-03-08T01:06:39;5.00;99.90
24408;DHT22;12542;50.924;4.516;2024-03-08T01:09:04;5.10;99.90
24408;DHT22;12542;50.924;4.516;2024-03-08T01:11:33;5.10;99.90
24408;DHT22;12542;50.924;4.516;2024-03-08T01:13:59;5.10;99.90
24408;DHT22;12542;50.924;4.516;2024-03-08T01:16:25;5.10;99.90
24408;DHT22;12542;50.924;4.516;2024-03-08T01:18:51;5.20;99.90
24408;DHT22;12542;50.924;4.516;2024-03-08T01:21:16;4.90;99.90
24408;DHT22;12542;50.924;4.516;2024-03-08T01:23:42;4.80;99.90
24408;DHT22;12542;50.924;4.516;2024-03-08T01:26:08;4.80;99.90
24408;DHT22;12542;50.924;4.516;2024-03-08T01:28:34;4.80;99.90
24408;DHT22;12542;50.924;4.516;2024-03-08T01:31:00;4.80;99.90
24408;DHT22;12542;50.924;4.516;2024-03-08T01:33:26;4.90;99.90
24408;DHT22;12542;50.924;4.516;2024-03-08T01:35:53;4.90;99.90
24408;DHT22;12542;50.924;4.516;2024-03-08T01:38:20;4.90;99.90
24408;DHT22;12542;50.924;4.516;2024-03-08T01:40:49;4.70;99.90
24408;DHT22;12542;50.924;4.516;2024-03-08T01:43:24;4.70;99.90
24408;DHT22;12542;50.924;4.516;2024-03-08T01:45:50;4.90;99.90
24408;DHT22;12542;50.924;4.516;2024-03-08T01:48:17;4.80;99.90
24408;DHT22;12542;50.924;4.516;2024-03-08T01:50:43;5.00;99.90
24408;DHT22;12542;50.924;4.516;2024-03-08T01:53:10;4.80;99.90
24408;DHT22;12542;50.924;4.516;2024-03-08T01:55:38;4.70;99.90
24408;DHT22;12542;50.924;4.516;2024-03-08T01:58:09;4.80;99.90
24408;DHT22;12542;50.924;4.516;2024-03-08T02:00:36;4.70;99.90
24408;DHT22;12542;50.924;4.516;2024-03-08T02:03:05;4.70;99.90
24408;DHT22;12542;50.924;4.516;2024-03-08T02:05:32;4.70;99.90
24408;DHT22;12542;50.924;4.516;2024-03-08T02:07:58;4.50;99.90
24408;DHT22;12542;50.924;4.516;2024-03-08T02:10:23;4.40;99.90
24408;DHT22;12542;50.924;4.516;2024-03-08T02:12:50;4.50;99.90
24408;DHT22;12542;50.924;4.516;2024-03-08T02:15:16;4.70;99.90
24408;DHT22;12542;50.924;4.516;2024-03-08T02:17:42;4.80;99.90
24408;DHT22;12542;50.924;4.516;2024-03-08T02:20:10;4.70;99.90
24408;DHT22;12542;50.924;4.516;2024-03-08T02:22:38;4.70;99.90
24408;DHT22;12542;50.924;4.516;2024-03-08T02:25:05;4.70;99.90
24408;DHT22;12542;50.924;4.516;2024-03-08T02:27:31;4.80;99.90
24408;DHT22;12542;50.924;4.516;2024-03-08T02:29:57;4.80;99.90
24408;DHT22;12542;50.924;4.516;2024-03-08T02:32:26;4.60;99.90
24408;DHT22;12542;50.924;4.516;2024-03-08T02:34:56;4.60;99.90
24408;DHT22;12542;50.924;4.516;2024-03-08T02:37:22;4.60;99.90
24408;DHT22;12542;50.924;4.516;2024-03-08T02:39:47;4.70;99.90
24408;DHT22;12542;50.924;4.516;2024-03-08T02:42:13;4.70;99.90
24408;DHT22;12542;50.924;4.516;2024-03-08T02:44:42;4.60;99.90
24408;DHT22;12542;50.924;4.516;2024-03-08T02:47:09;4.50;99.90
24408;DHT22;12542;50.924;4.516;2024-03-08T02:49:36;4.40;99.90
24408;DHT22;12542;50.924;4.516;2024-03-08T02:52:03;4.50;99.90
24408;DHT22;12542;50.924;4.516;2024-03-08T02:54:30;4.60;99.90
24408;DHT22;12542;50.924;4.516;2024-03-08T02:56:56;4.60;99.90
24408;DHT22;12542;50.924;4.516;2024-03-08T02:59:22;4.40;99.90
24408;DHT22;12542;50.924;4.516;2024-03-08T03:01:49;4.30;99.90
24408;DHT22;12542;50.924;4.516;2024-03-08T03:04:14;4.30;99.90
24408;DHT22;12542;50.924;4.516;2024-03-08T03:06:40;4.20;99.90
24408;DHT22;12542;50.924;4.516;2024-03-08T03:09:06;4.20;99.90
24408;DHT22;12542;50.924;4.516;2024-03-08T03:11:32;4.10;99.90
24408;DHT22;12542;50.924;4.516;2024-03-08T03:13:58;4.30;99.90
24408;DHT22;12542;50.924;4.516;2024-03-08T03:16:24;4.20;99.90
24408;DHT22;12542;50.924;4.516;2024-03-08T03:18:49;4.10;99.90
24408;DHT22;12542;50.924;4.516;2024-03-08T03:21:15;4.00;99.90
24408;DHT22;12542;50.924;4.516;2024-03-08T03:23:42;4.00;99.90
24408;DHT22;12542;50.924;4.516;2024-03-08T03:26:11;3.90;99.90
24408;DHT22;12542;50.924;4.516;2024-03-08T03:28:37;4.00;99.90
24408;DHT22;12542;50.924;4.516;2024-03-08T03:31:06;4.00;99.90
24408;DHT22;12542;50.924;4.516;2024-03-08T03:33:32;4.00;99.90
24408;DHT22;12542;50.924;4.516;2024-03-08T03:36:00;3.80;99.90
24408;DHT22;12542;50.924;4.516;2024-03-08T03:38:26;3.80;99.90
24408;DHT22;12542;50.924;4.516;2024-03-08T03:40:53;3.80;99.90
24408;DHT22;12542;50.924;4.516;2024-03-08T03:43:23;3.80;99.90
24408;DHT22;12542;50.924;4.516;2024-03-08T03:45:49;3.80;99.90
24408;DHT22;12542;50.924;4.516;2024-03-08T03:48:14;3.90;99.90
24408;DHT22;12542;50.924;4.516;2024-03-08T03:50:40;3.90;99.90
24408;DHT22;12542;50.924;4.516;2024-03-08T03:53:09;3.90;99.90
24408;DHT22;12542;50.924;4.516;2024-03-08T03:55:35;3.90;99.90
24408;DHT22;12542;50.924;4.516;2024-03-08T03:58:02;3.90;99.90
24408;DHT22;12542;50.924;4.516;2024-03-08T04:00:28;3.80;99.90
24408;DHT22;12542;50.924;4.516;2024-03-08T04:02:54;3.90;99.90
24408;DHT22;12542;50.924;4.516;2024-03-08T04:05:21;3.80;99.90
24408;DHT22;12542;50.924;4.516;2024-03-08T04:07:47;3.80;99.90
24408;DHT22;12542;50.924;4.516;2024-03-08T04:10:13;3.60;99.90
24408;DHT22;12542;50.924;4.516;2024-03-08T04:12:40;3.70;99.90
24408;DHT22;12542;50.924;4.516;2024-03-08T04:15:06;3.70;99.90
24408;DHT22;12542;50.924;4.516;2024-03-08T04:17:36;3.80;99.90
24408;DHT22;12542;50.924;4.516;2024-03-08T04:20:03;3.80;99.90
24408;DHT22;12542;50.924;4.516;2024-03-08T04:22:38;3.80;99.90
24408;DHT22;12542;50.924;4.516;2024-03-08T04:25:07;3.70;99.90
24408;DHT22;12542;50.924;4.516;2024-03-08T04:27:33;3.70;99.90
24408;DHT22;12542;50.924;4.516;2024-03-08T04:30:00;3.80;99.90
24408;DHT22;12542;50.924;4.516;2024-03-08T04:32:25;3.70;99.90
24408;DHT22;12542;50.924;4.516;2024-03-08T04:34:51;3.70;99.90
24408;DHT22;12542;50.924;4.516;2024-03-08T04:37:17;3.70;99.90
24408;DHT22;12542;50.924;4.516;2024-03-08T04:39:47;3.70;99.90
24408;DHT22;12542;50.924;4.516;2024-03-08T04:42:13;3.70;99.90
24408;DHT22;12542;50.924;4.516;2024-03-08T04:44:42;3.80;99.90
24408;DHT22;12542;50.924;4.516;2024-03-08T04:47:08;3.90;99.90
24408;DHT22;12542;50.924;4.516;2024-03-08T04:49:34;3.90;99.90
24408;DHT22;12542;50.924;4.516;2024-03-08T04:52:04;3.80;99.90
24408;DHT22;12542;50.924;4.516;2024-03-08T04:54:32;3.70;99.90
24408;DHT22;12542;50.924;4.516;2024-03-08T04:56:58;3.70;99.90
24408;DHT22;12542;50.924;4.516;2024-03-08T04:59:26;3.90;99.90
24408;DHT22;12542;50.924;4.516;2024-03-08T05:01:52;4.00;99.90
24408;DHT22;12542;50.924;4.516;2024-03-08T05:04:20;3.80;99.90
24408;DHT22;12542;50.924;4.516;2024-03-08T05:06:46;3.70;99.90
24408;DHT22;12542;50.924;4.516;2024-03-08T05:09:12;3.70;99.90
24408;DHT22;12542;50.924;4.516;2024-03-08T05:11:42;3.70;99.90
24408;DHT22;12542;50.924;4.516;2024-03-08T05:14:08;3.70;99.90
24408;DHT22;12542;50.924;4.516;2024-03-08T05:16:34;3.70;99.90
24408;DHT22;12542;50.924;4.516;2024-03-08T05:19:00;3.60;99.90
24408;DHT22;12542;50.924;4.516;2024-03-08T05:21:26;3.60;99.90
24408;DHT22;12542;50.924;4.516;2024-03-08T05:23:51;3.50;99.90
24408;DHT22;12542;50.924;4.516;2024-03-08T05:26:17;3.70;99.90
24408;DHT22;12542;50.924;4.516;2024-03-08T05:28:42;3.70;99.90
24408;DHT22;12542;50.924;4.516;2024-03-08T05:31:08;3.40;99.90
24408;DHT22;12542;50.924;4.516;2024-03-08T05:33:34;3.50;99.90
24408;DHT22;12542;50.924;4.516;2024-03-08T05:36:00;3.40;99.90
24408;DHT22;12542;50.924;4.516;2024-03-08T05:38:27;3.50;99.90
24408;DHT22;12542;50.924;4.516;2024-03-08T05:40:54;3.40;99.90
24408;DHT22;12542;50.924;4.516;2024-03-08T05:43:20;3.50;99.90
24408;DHT22;12542;50.924;4.516;2024-03-08T05:45:46;3.60;99.90
24408;DHT22;12542;50.924;4.516;2024-03-08T05:48:13;3.50;99.90
24408;DHT22;12542;50.924;4.516;2024-03-08T05:50:38;3.30;99.90
24408;DHT22;12542;50.924;4.516;2024-03-08T05:53:04;3.30;99.90
24408;DHT22;12542;50.924;4.516;2024-03-08T05:55:33;3.50;99.90
24408;DHT22;12542;50.924;4.516;2024-03-08T05:58:02;3.70;99.90
24408;DHT22;12542;50.924;4.516;2024-03-08T06:00:28;3.60;99.90
24408;DHT22;12542;50.924;4.516;2024-03-08T06:02:53;3.50;99.90
24408;DHT22;12542;50.924;4.516;2024-03-08T06:05:19;3.60;99.90
24408;DHT22;12542;50.924;4.516;2024-03-08T06:07:45;3.60;99.90
24408;DHT22;12542;50.924;4.516;2024-03-08T06:10:13;3.60;99.90
24408;DHT22;12542;50.924;4.516;2024-03-08T06:12:40;3.50;99.90
24408;DHT22;12542;50.924;4.516;2024-03-08T06:15:10;3.50;99.90
24408;DHT22;12542;50.924;4.516;2024-03-08T06:17:36;3.40;99.90
24408;DHT22;12542;50.924;4.516;2024-03-08T06:20:02;3.40;99.90
24408;DHT22;12542;50.924;4.516;2024-03-08T06:22:29;3.40;99.90
24408;DHT22;12542;50.924;4.516;2024-03-08T06:24:56;3.50;99.90
24408;DHT22;12542;50.924;4.516;2024-03-08T06:27:22;3.30;99.90
24408;DHT22;12542;50.924;4.516;2024-03-08T06:29:47;3.40;99.90
24408;DHT22;12542;50.924;4.516;2024-03-08T06:32:14;3.60;99.90
24408;DHT22;12542;50.924;4.516;2024-03-08T06:34:41;3.70;99.90
24408;DHT22;12542;50.924;4.516;2024-03-08T06:37:07;3.80;99.90
24408;DHT22;12542;50.924;4.516;2024-03-08T06:39:32;3.80;99.90
24408;DHT22;12542;50.924;4.516;2024-03-08T06:41:59;3.90;99.90
24408;DHT22;12542;50.924;4.516;2024-03-08T06:44:25;3.80;99.90
24408;DHT22;12542;50.924;4.516;2024-03-08T06:46:51;3.80;99.90
24408;DHT22;12542;50.924;4.516;2024-03-08T06:49:17;3.80;99.90
24408;DHT22;12542;50.924;4.516;2024-03-08T06:51:42;3.80;99.90
24408;DHT22;12542;50.924;4.516;2024-03-08T06:54:08;4.30;99.90
24408;DHT22;12542;50.924;4.516;2024-03-08T06:56:35;4.70;99.90
24408;DHT22;12542;50.924;4.516;2024-03-08T06:59:00;5.00;99.90
24408;DHT22;12542;50.924;4.516;2024-03-08T07:01:28;5.30;99.90
24408;DHT22;12542;50.924;4.516;2024-03-08T07:03:57;5.70;99.90
24408;DHT22;12542;50.924;4.516;2024-03-08T07:06:23;5.90;99.90
24408;DHT22;12542;50.924;4.516;2024-03-08T07:08:49;5.90;99.90
24408;DHT22;12542;50.924;4.516;2024-03-08T07:11:15;6.40;99.90
24408;DHT22;12542;50.924;4.516;2024-03-08T07:13:47;6.00;99.90
24408;DHT22;12542;50.924;4.516;2024-03-08T07:16:12;6.70;99.90
24408;DHT22;12542;50.924;4.516;2024-03-08T07:18:38;6.80;99.90
24408;DHT22;12542;50.924;4.516;2024-03-08T07:21:09;6.90;99.90
24408;DHT22;12542;50.924;4.516;2024-03-08T07:23:36;6.80;99.90
24408;DHT22;12542;50.924;4.516;2024-03-08T07:26:35;7.30;99.90
24408;DHT22;12542;50.924;4.516;2024-03-08T07:29:00;7.80;99.90
24408;DHT22;12542;50.924;4.516;2024-03-08T07:31:26;6.90;99.90
24408;DHT22;12542;50.924;4.516;2024-03-08T07:33:52;6.90;99.90
24408;DHT22;12542;50.924;4.516;2024-03-08T07:36:20;7.40;99.90
24408;DHT22;12542;50.924;4.516;2024-03-08T07:38:47;7.40;99.90
24408;DHT22;12542;50.924;4.516;2024-03-08T07:41:14;7.70;99.90
24408;DHT22;12542;50.924;4.516;2024-03-08T07:43:40;7.60;99.90
24408;DHT22;12542;50.924;4.516;2024-03-08T07:46:06;7.40;99.90
24408;DHT22;12542;50.924;4.516;2024-03-08T07:48:31;7.70;99.90
24408;DHT22;12542;50.924;4.516;2024-03-08T07:51:00;7.70;99.90
24408;DHT22;12542;50.924;4.516;2024-03-08T07:53:25;7.60;99.90
24408;DHT22;12542;50.924;4.516;2024-03-08T07:55:52;8.00;99.90
24408;DHT22;12542;50.924;4.516;2024-03-08T07:58:18;8.50;99.90
24408;DHT22;12542;50.924;4.516;2024-03-08T08:00:44;7.90;99.90
24408;DHT22;12542;50.924;4.516;2024-03-08T08:03:09;7.70;99.90
24408;DHT22;12542;50.924;4.516;2024-03-08T08:05:35;7.70;99.90
24408;DHT22;12542;50.924;4.516;2024-03-08T08:08:03;8.00;99.90
24408;DHT22;12542;50.924;4.516;2024-03-08T08:10:33;7.50;99.90
24408;DHT22;12542;50.924;4.516;2024-03-08T08:12:59;7.70;99.90
24408;DHT22;12542;50.924;4.516;2024-03-08T08:15:24;8.00;99.90
24408;DHT22;12542;50.924;4.516;2024-03-08T08:17:50;8.20;99.90
24408;DHT22;12542;50.924;4.516;2024-03-08T08:20:17;8.10;99.90
24408;DHT22;12542;50.924;4.516;2024-03-08T08:22:44;8.60;99.90
24408;DHT22;12542;50.924;4.516;2024-03-08T08:25:09;8.30;99.90
24408;DHT22;12542;50.924;4.516;2024-03-08T08:27:39;7.90;99.90
24408;DHT22;12542;50.924;4.516;2024-03-08T08:30:11;7.70;99.90
24408;DHT22;12542;50.924;4.516;2024-03-08T08:32:39;8.00;99.90
24408;DHT22;12542;50.924;4.516;2024-03-08T08:35:07;8.00;99.90
24408;DHT22;12542;50.924;4.516;2024-03-08T08:37:41;7.80;99.90
24408;DHT22;12542;50.924;4.516;2024-03-08T08:40:07;8.10;99.90
24408;DHT22;12542;50.924;4.516;2024-03-08T08:42:40;8.20;99.90
24408;DHT22;12542;50.924;4.516;2024-03-08T08:45:07;8.50;99.90
24408;DHT22;12542;50.924;4.516;2024-03-08T08:47:35;8.70;99.90
24408;DHT22;12542;50.924;4.516;2024-03-08T08:50:01;8.50;99.90
24408;DHT22;12542;50.924;4.516;2024-03-08T08:52:26;8.60;99.90
24408;DHT22;12542;50.924;4.516;2024-03-08T08:54:54;8.40;99.90
24408;DHT22;12542;50.924;4.516;2024-03-08T08:57:20;8.40;99.90
24408;DHT22;12542;50.924;4.516;2024-03-08T08:59:46;8.40;99.90
24408;DHT22;12542;50.924;4.516;2024-03-08T09:02:12;8.20;99.90
24408;DHT22;12542;50.924;4.516;2024-03-08T09:04:38;8.20;99.90
24408;DHT22;12542;50.924;4.516;2024-03-08T09:07:04;8.50;99.90
24408;DHT22;12542;50.924;4.516;2024-03-08T09:09:32;8.80;99.90
24408;DHT22;12542;50.924;4.516;2024-03-08T09:11:58;8.80;99.90
24408;DHT22;12542;50.924;4.516;2024-03-08T09:14:23;8.60;99.90
24408;DHT22;12542;50.924;4.516;2024-03-08T09:16:51;8.50;99.90
24408;DHT22;12542;50.924;4.516;2024-03-08T09:19:19;8.80;99.90
24408;DHT22;12542;50.924;4.516;2024-03-08T09:21:45;9.00;99.90
24408;DHT22;12542;50.924;4.516;2024-03-08T09:24:11;8.70;99.90
24408;DHT22;12542;50.924;4.516;2024-03-08T09:26:38;8.60;99.90
24408;DHT22;12542;50.924;4.516;2024-03-08T09:29:03;8.60;99.90
24408;DHT22;12542;50.924;4.516;2024-03-08T09:31:32;8.80;99.90
24408;DHT22;12542;50.924;4.516;2024-03-08T09:33:58;8.80;99.90
24408;DHT22;12542;50.924;4.516;2024-03-08T09:36:23;8.70;99.90
24408;DHT22;12542;50.924;4.516;2024-03-08T09:38:50;8.90;99.90
24408;DHT22;12542;50.924;4.516;2024-03-08T09:41:16;8.80;99.90
24408;DHT22;12542;50.924;4.516;2024-03-08T09:43:43;8.80;99.90
24408;DHT22;12542;50.924;4.516;2024-03-08T09:46:10;9.20;99.90
24408;DHT22;12542;50.924;4.516;2024-03-08T09:48:37;9.40;99.90
24408;DHT22;12542;50.924;4.516;2024-03-08T09:51:05;9.50;99.90
24408;DHT22;12542;50.924;4.516;2024-03-08T09:53:30;9.90;99.90
24408;DHT22;12542;50.924;4.516;2024-03-08T09:55:56;9.50;99.90
24408;DHT22;12542;50.924;4.516;2024-03-08T09:58:22;9.50;99.90
24408;DHT22;12542;50.924;4.516;2024-03-08T10:01:02;9.50;99.90
24408;DHT22;12542;50.924;4.516;2024-03-08T10:03:30;9.30;99.90
24408;DHT22;12542;50.924;4.516;2024-03-08T10:05:57;9.80;99.90
24408;DHT22;12542;50.924;4.516;2024-03-08T10:08:30;9.00;99.90
24408;DHT22;12542;50.924;4.516;2024-03-08T10:10:56;9.30;99.90
24408;DHT22;12542;50.924;4.516;2024-03-08T10:13:26;9.60;99.90
24408;DHT22;12542;50.924;4.516;2024-03-08T10:15:55;9.30;99.90
24408;DHT22;12542;50.924;4.516;2024-03-08T10:18:21;9.50;99.90
24408;DHT22;12542;50.924;4.516;2024-03-08T10:21:03;9.90;99.90
24408;DHT22;12542;50.924;4.516;2024-03-08T10:23:30;10.20;99.90
24408;DHT22;12542;50.924;4.516;2024-03-08T10:25:56;10.30;99.90
24408;DHT22;12542;50.924;4.516;2024-03-08T10:28:23;10.20;99.90
24408;DHT22;12542;50.924;4.516;2024-03-08T10:30:50;9.90;99.90
24408;DHT22;12542;50.924;4.516;2024-03-08T10:33:16;9.80;99.90
24408;DHT22;12542;50.924;4.516;2024-03-08T10:35:42;9.80;99.90
24408;DHT22;12542;50.924;4.516;2024-03-08T10:38:10;9.90;99.90
24408;DHT22;12542;50.924;4.516;2024-03-08T10:40:39;10.10;99.90
24408;DHT22;12542;50.924;4.516;2024-03-08T10:43:10;10.40;99.90
24408;DHT22;12542;50.924;4.516;2024-03-08T10:45:40;10.40;99.90
24408;DHT22;12542;50.924;4.516;2024-03-08T10:50:49;10.20;99.90
24408;DHT22;12542;50.924;4.516;2024-03-08T10:53:17;9.90;99.90
24408;DHT22;12542;50.924;4.516;2024-03-08T10:55:44;9.90;99.90
24408;DHT22;12542;50.924;4.516;2024-03-08T10:58:11;9.90;99.90
24408;DHT22;12542;50.924;4.516;2024-03-08T11:00:37;10.00;99.90
24408;DHT22;12542;50.924;4.516;2024-03-08T11:03:04;10.30;99.90
24408;DHT22;12542;50.924;4.516;2024-03-08T11:05:40;10.70;99.90
24408;DHT22;12542;50.924;4.516;2024-03-08T11:08:16;10.50;99.90
24408;DHT22;12542;50.924;4.516;2024-03-08T11:10:51;10.60;99.90
24408;DHT22;12542;50.924;4.516;2024-03-08T11:13:41;10.70;99.90
24408;DHT22;12542;50.924;4.516;2024-03-08T11:16:36;11.10;99.90
24408;DHT22;12542;50.924;4.516;2024-03-08T11:18:59;11.00;99.90
24408;DHT22;12542;50.924;4.516;2024-03-08T11:21:30;10.70;99.90
24408;DHT22;12542;50.924;4.516;2024-03-08T11:24:06;10.70;99.90
24408;DHT22;12542;50.924;4.516;2024-03-08T11:26:33;10.50;99.90
24408;DHT22;12542;50.924;4.516;2024-03-08T11:34:36;11.10;99.90
24408;DHT22;12542;50.924;4.516;2024-03-08T11:37:12;11.10;99.90
24408;DHT22;12542;50.924;4.516;2024-03-08T11:39:58;10.80;99.90
24408;DHT22;12542;50.924;4.516;2024-03-08T11:42:25;11.00;99.90
24408;DHT22;12542;50.924;4.516;2024-03-08T11:44:56;11.30;99.90
24408;DHT22;12542;50.924;4.516;2024-03-08T11:47:23;11.20;99.90
24408;DHT22;12542;50.924;4.516;2024-03-08T11:49:51;11.50;99.90
24408;DHT22;12542;50.924;4.516;2024-03-08T11:52:18;11.30;99.90
24408;DHT22;12542;50.924;4.516;2024-03-08T11:54:54;11.20;99.90
24408;DHT22;12542;50.924;4.516;2024-03-08T11:57:25;11.20;99.90
24408;DHT22;12542;50.924;4.516;2024-03-08T11:59:55;11.30;99.90
24408;DHT22;12542;50.924;4.516;2024-03-08T12:02:22;11.10;99.90
24408;DHT22;12542;50.924;4.516;2024-03-08T12:04:56;11.30;99.90
24408;DHT22;12542;50.924;4.516;2024-03-08T12:07:23;11.30;99.90
24408;DHT22;12542;50.924;4.516;2024-03-08T12:10:16;11.20;99.90
24408;DHT22;12542;50.924;4.516;2024-03-08T12:12:48;11.20;99.90
24408;DHT22;12542;50.924;4.516;2024-03-08T12:15:19;11.40;99.90
24408;DHT22;12542;50.924;4.516;2024-03-08T12:17:49;11.70;99.90
24408;DHT22;12542;50.924;4.516;2024-03-08T12:20:23;11.70;99.90
24408;DHT22;12542;50.924;4.516;2024-03-08T12:22:50;11.70;99.90
24408;DHT22;12542;50.924;4.516;2024-03-08T12:25:20;11.90;99.90
24408;DHT22;12542;50.924;4.516;2024-03-08T12:27:46;12.00;99.90
24408;DHT22;12542;50.924;4.516;2024-03-08T12:30:24;11.90;99.90
24408;DHT22;12542;50.924;4.516;2024-03-08T12:32:55;12.00;99.90
24408;DHT22;12542;50.924;4.516;2024-03-08T12:35:23;12.20;99.90
24408;DHT22;12542;50.924;4.516;2024-03-08T12:37:52;12.00;99.90
24408;DHT22;12542;50.924;4.516;2024-03-08T12:40:19;12.00;99.90
24408;DHT22;12542;50.924;4.516;2024-03-08T12:42:50;11.40;99.90
24408;DHT22;12542;50.924;4.516;2024-03-08T12:45:16;11.70;99.90
24408;DHT22;12542;50.924;4.516;2024-03-08T12:47:42;12.10;99.90
24408;DHT22;12542;50.924;4.516;2024-03-08T12:50:10;12.00;99.90
24408;DHT22;12542;50.924;4.516;2024-03-08T12:52:36;12.00;99.90
24408;DHT22;12542;50.924;4.516;2024-03-08T12:55:02;11.90;99.90
24408;DHT22;12542;50.924;4.516;2024-03-08T12:57:30;11.80;99.90
24408;DHT22;12542;50.924;4.516;2024-03-08T12:59:56;11.80;99.90
24408;DHT22;12542;50.924;4.516;2024-03-08T13:02:22;12.00;99.90
24408;DHT22;12542;50.924;4.516;2024-03-08T13:04:49;11.90;99.90
24408;DHT22;12542;50.924;4.516;2024-03-08T13:07:22;11.80;99.90
24408;DHT22;12542;50.924;4.516;2024-03-08T13:09:49;11.80;99.90
24408;DHT22;12542;50.924;4.516;2024-03-08T13:12:15;12.20;99.90
24408;DHT22;12542;50.924;4.516;2024-03-08T13:14:43;12.40;99.90
24408;DHT22;12542;50.924;4.516;2024-03-08T13:17:09;12.40;99.90
24408;DHT22;12542;50.924;4.516;2024-03-08T13:19:37;12.40;99.90
24408;DHT22;12542;50.924;4.516;2024-03-08T13:22:04;12.40;99.90
24408;DHT22;12542;50.924;4.516;2024-03-08T13:24:30;12.30;99.90
24408;DHT22;12542;50.924;4.516;2024-03-08T13:26:59;12.10;99.90
24408;DHT22;12542;50.924;4.516;2024-03-08T13:29:25;12.20;99.90
24408;DHT22;12542;50.924;4.516;2024-03-08T13:31:51;12.10;99.90
24408;DHT22;12542;50.924;4.516;2024-03-08T13:34:18;12.20;99.90
24408;DHT22;12542;50.924;4.516;2024-03-08T13:36:45;12.10;99.90
24408;DHT22;12542;50.924;4.516;2024-03-08T13:39:12;12.20;99.90
24408;DHT22;12542;50.924;4.516;2024-03-08T13:41:46;12.30;99.90
24408;DHT22;12542;50.924;4.516;2024-03-08T13:44:12;12.30;99.90
24408;DHT22;12542;50.924;4.516;2024-03-08T13:46:38;12.50;99.90
24408;DHT22;12542;50.924;4.516;2024-03-08T13:49:05;12.40;99.90
24408;DHT22;12542;50.924;4.516;2024-03-08T13:51:33;12.40;99.90
24408;DHT22;12542;50.924;4.516;2024-03-08T13:53:59;12.30;99.90
24408;DHT22;12542;50.924;4.516;2024-03-08T13:56:29;12.30;99.90
24408;DHT22;12542;50.924;4.516;2024-03-08T13:58:58;12.30;99.90
24408;DHT22;12542;50.924;4.516;2024-03-08T14:01:27;12.40;99.90
24408;DHT22;12542;50.924;4.516;2024-03-08T14:03:53;12.60;99.90
24408;DHT22;12542;50.924;4.516;2024-03-08T14:06:19;12.80;99.90
24408;DHT22;12542;50.924;4.516;2024-03-08T14:08:44;12.80;99.90
24408;DHT22;12542;50.924;4.516;2024-03-08T14:11:10;12.90;99.90
24408;DHT22;12542;50.924;4.516;2024-03-08T14:13:45;12.90;99.90
24408;DHT22;12542;50.924;4.516;2024-03-08T14:16:14;12.70;99.90
24408;DHT22;12542;50.924;4.516;2024-03-08T14:18:40;12.70;99.90
24408;DHT22;12542;50.924;4.516;2024-03-08T14:21:07;12.70;99.90
24408;DHT22;12542;50.924;4.516;2024-03-08T14:23:36;12.60;99.90
24408;DHT22;12542;50.924;4.516;2024-03-08T14:26:04;12.60;99.90
24408;DHT22;12542;50.924;4.516;2024-03-08T14:28:32;12.80;99.90
24408;DHT22;12542;50.924;4.516;2024-03-08T14:30:58;12.70;99.90
24408;DHT22;12542;50.924;4.516;2024-03-08T14:33:24;12.80;99.90
24408;DHT22;12542;50.924;4.516;2024-03-08T14:35:51;12.80;99.90
24408;DHT22;12542;50.924;4.516;2024-03-08T14:38:16;12.90;99.90
24408;DHT22;12542;50.924;4.516;2024-03-08T14:40:43;12.70;99.90
24408;DHT22;12542;50.924;4.516;2024-03-08T14:43:12;12.60;99.90
24408;DHT22;12542;50.924;4.516;2024-03-08T14:45:42;12.50;99.90
24408;DHT22;12542;50.924;4.516;2024-03-08T14:48:07;12.60;99.90
24408;DHT22;12542;50.924;4.516;2024-03-08T14:50:33;12.50;99.90
24408;DHT22;12542;50.924;4.516;2024-03-08T14:52:59;12.70;99.90
24408;DHT22;12542;50.924;4.516;2024-03-08T14:55:26;12.90;99.90
24408;DHT22;12542;50.924;4.516;2024-03-08T14:57:52;12.90;99.90
24408;DHT22;12542;50.924;4.516;2024-03-08T15:00:20;12.90;99.90
24408;DHT22;12542;50.924;4.516;2024-03-08T15:03:01;13.00;99.90
24408;DHT22;12542;50.924;4.516;2024-03-08T15:05:27;12.90;99.90
24408;DHT22;12542;50.924;4.516;2024-03-08T15:07:54;13.00;99.90
24408;DHT22;12542;50.924;4.516;2024-03-08T15:10:23;13.00;99.90
24408;DHT22;12542;50.924;4.516;2024-03-08T15:12:51;13.00;99.90
24408;DHT22;12542;50.924;4.516;2024-03-08T15:15:21;12.90;99.90
24408;DHT22;12542;50.924;4.516;2024-03-08T15:17:48;13.10;99.90
24408;DHT22;12542;50.924;4.516;2024-03-08T15:20:15;12.90;99.90
24408;DHT22;12542;50.924;4.516;2024-03-08T15:22:48;12.80;99.90
24408;DHT22;12542;50.924;4.516;2024-03-08T15:25:14;12.70;99.90
24408;DHT22;12542;50.924;4.516;2024-03-08T15:27:52;12.70;99.90
24408;DHT22;12542;50.924;4.516;2024-03-08T15:30:19;12.60;99.90
24408;DHT22;12542;50.924;4.516;2024-03-08T15:32:48;12.70;99.90
24408;DHT22;12542;50.924;4.516;2024-03-08T15:35:16;12.80;99.90
24408;DHT22;12542;50.924;4.516;2024-03-08T15:37:45;12.90;99.90
24408;DHT22;12542;50.924;4.516;2024-03-08T15:40:12;12.90;99.90
24408;DHT22;12542;50.924;4.516;2024-03-08T15:42:57;13.00;99.90
24408;DHT22;12542;50.924;4.516;2024-03-08T15:45:23;13.00;99.90
24408;DHT22;12542;50.924;4.516;2024-03-08T15:47:52;12.80;99.90
24408;DHT22;12542;50.924;4.516;2024-03-08T15:50:18;12.80;99.90